Time;durP1;ratioP1;P1;durP2;ratioP2;P2;SDS_P1;SDS_P2;PMS_P1;PMS_P2;Temp;Humidity;BMP_temperature;BMP_pressure;BME280_temperature;BME280_humidity;BME280_pressure;Samples;Min_cycle;Max_cycle;Signal;HPM_P1;HPM_P2
2022/01/24 00:04:22;;;;;;;10.38;5.10;;;5.60;99.90;;;;;;5106306;28;20155;-86
2022/01/24 00:17:09;;;;;;;11.30;5.45;;;5.50;99.90;;;;;;5062156;28;20079;-86
2022/01/24 00:27:49;;;;;;;12.13;6.32;;;5.50;99.90;;;;;;5066208;28;20811;-85
2022/01/24 00:30:15;;;;;;;10.05;5.50;;;5.50;99.90;;;;;;5048819;28;20131;-85
2022/01/24 00:32:41;;;;;;;11.73;6.53;;;5.50;99.90;;;;;;5040963;28;20466;-86
2022/01/24 00:35:07;;;;;;;13.35;6.32;;;5.50;99.90;;;;;;5056988;28;20498;-85
2022/01/24 00:37:34;;;;;;;11.38;6.45;;;5.50;99.90;;;;;;5049998;28;20110;-86
2022/01/24 00:40:00;;;;;;;12.55;7.15;;;5.50;99.90;;;;;;5045375;28;20120;-85
2022/01/24 00:45:05;;;;;;;11.50;7.05;;;5.50;99.90;;;;;;5060562;28;20047;-85
2022/01/24 01:18:49;;;;;;;11.88;6.07;;;5.40;99.90;;;;;;4846419;29;20072;-85
2022/01/24 01:21:15;;;;;;;11.48;6.07;;;5.40;99.90;;;;;;4870624;29;20435;-85
2022/01/24 01:23:46;;;;;;;10.32;5.88;;;5.40;99.90;;;;;;4872912;29;20041;-85
2022/01/24 01:26:23;;;;;;;10.05;5.70;;;5.40;99.90;;;;;;4869639;29;20052;-85
2022/01/24 01:28:54;;;;;;;10.05;5.10;;;5.30;99.90;;;;;;4865815;29;20037;-86
2022/01/24 01:31:31;;;;;;;10.18;5.95;;;5.40;99.90;;;;;;4863595;29;20112;-85
2022/01/24 01:37:10;;;;;;;10.15;5.45;;;5.40;99.90;;;;;;4843209;29;20189;-85
2022/01/24 01:55:44;;;;;;;9.13;5.25;;;5.30;99.90;;;;;;4865855;29;20235;-85
2022/01/24 01:58:12;;;;;;;9.02;5.30;;;5.30;99.90;;;;;;4863213;29;20128;-85
2022/01/24 02:00:43;;;;;;;7.85;5.07;;;5.30;99.90;;;;;;4866260;29;20506;-86
2022/01/24 02:03:09;;;;;;;7.07;4.05;;;5.30;99.90;;;;;;4862615;29;20113;-85
2022/01/24 02:05:36;;;;;;;7.47;4.28;;;5.30;99.90;;;;;;4863739;29;20119;-85
2022/01/24 02:08:02;;;;;;;8.32;4.40;;;5.30;99.90;;;;;;4865050;29;20043;-86
2022/01/24 02:10:29;;;;;;;9.35;4.60;;;5.30;99.90;;;;;;4862667;29;20568;-85
2022/01/24 02:12:56;;;;;;;8.55;4.38;;;5.30;99.90;;;;;;4863997;29;20048;-86
2022/01/24 02:15:35;;;;;;;8.25;4.20;;;5.30;99.90;;;;;;4862271;29;20060;-85
2022/01/24 02:18:09;;;;;;;7.43;4.30;;;5.30;99.90;;;;;;4868648;29;20392;-86
2022/01/24 02:21:07;;;;;;;7.30;3.95;;;5.30;99.90;;;;;;4877409;29;20051;-86
2022/01/24 02:23:39;;;;;;;8.07;4.10;;;5.20;99.90;;;;;;4863688;29;20057;-86
2022/01/24 02:26:09;;;;;;;6.85;3.65;;;5.20;99.90;;;;;;4866496;29;20123;-85
2022/01/24 02:34:22;;;;;;;7.53;4.20;;;5.20;99.90;;;;;;4863448;29;20056;-85
2022/01/24 02:36:48;;;;;;;;;;;5.20;99.90;;;;;;4869020;29;20046;-85
2022/01/24 02:50:24;;;;;;;9.15;4.53;;;5.30;99.90;;;;;;4874699;29;20049;-85
2022/01/24 02:52:49;;;;;;;9.23;4.90;;;5.30;99.90;;;;;;4863001;29;20154;-85
2022/01/24 02:55:15;;;;;;;7.63;4.55;;;5.30;99.90;;;;;;4861885;29;20056;-86
2022/01/24 02:57:40;;;;;;;9.70;4.82;;;5.30;99.90;;;;;;4861624;29;20045;-86
2022/01/24 03:00:07;;;;;;;11.15;4.93;;;5.30;99.90;;;;;;4861147;29;20048;-86
2022/01/24 03:02:32;;;;;;;10.40;4.93;;;5.30;99.90;;;;;;4861866;29;20060;-87
2022/01/24 03:04:58;;;;;;;9.63;4.85;;;5.30;99.90;;;;;;4845225;29;20391;-85
2022/01/24 03:07:25;;;;;;;8.98;5.03;;;5.30;99.90;;;;;;4848068;29;20033;-85
2022/01/24 03:09:54;;;;;;;8.70;4.65;;;5.30;99.90;;;;;;4847756;29;20077;-85
2022/01/24 03:12:39;;;;;;;9.55;4.50;;;5.30;99.90;;;;;;4846359;29;20059;-86
2022/01/24 03:15:06;;;;;;;8.50;4.68;;;5.30;99.90;;;;;;4849031;29;20072;-85
2022/01/24 03:17:31;;;;;;;9.77;5.50;;;5.30;99.90;;;;;;4833016;29;20144;-85
2022/01/24 03:19:57;;;;;;;8.75;5.20;;;5.30;99.90;;;;;;4841221;29;20120;-85
2022/01/24 03:22:23;;;;;;;9.43;5.32;;;5.30;99.90;;;;;;4828443;29;20106;-85
2022/01/24 03:24:49;;;;;;;10.77;5.07;;;5.30;99.90;;;;;;4834694;29;20488;-86
2022/01/24 03:27:15;;;;;;;10.63;5.47;;;5.30;99.90;;;;;;4842643;29;20049;-86
2022/01/24 03:29:41;;;;;;;10.23;5.47;;;5.30;99.90;;;;;;4826423;29;20041;-86
2022/01/24 03:32:07;;;;;;;7.53;4.32;;;5.30;99.90;;;;;;4829930;29;20052;-85
2022/01/24 03:34:33;;;;;;;8.35;4.50;;;5.30;99.90;;;;;;4839802;29;20033;-85
2022/01/24 03:36:58;;;;;;;9.02;4.78;;;5.20;99.90;;;;;;4839208;29;20056;-85
2022/01/24 03:39:24;;;;;;;17.77;10.40;;;5.20;99.90;;;;;;4858272;29;20068;-85
2022/01/24 03:41:50;;;;;;;12.77;6.43;;;5.30;99.90;;;;;;4821291;29;20065;-85
2022/01/24 03:44:17;;;;;;;10.27;5.55;;;5.20;99.90;;;;;;4843334;29;20041;-85
2022/01/24 03:47:02;;;;;;;9.10;5.30;;;5.30;99.90;;;;;;4825086;29;20038;-86
2022/01/24 03:49:45;;;;;;;11.40;6.00;;;5.20;99.90;;;;;;4840433;29;20056;-86
2022/01/24 03:52:12;;;;;;;11.80;6.55;;;5.20;99.90;;;;;;4850291;29;20048;-85
2022/01/24 03:54:37;;;;;;;10.45;5.88;;;5.20;99.90;;;;;;4844632;29;20148;-85
2022/01/24 03:57:03;;;;;;;10.05;5.80;;;5.20;99.90;;;;;;4829451;29;20137;-85
2022/01/24 03:59:30;;;;;;;10.77;6.15;;;5.20;99.90;;;;;;4847740;29;20132;-85
2022/01/24 04:02:00;;;;;;;10.82;5.85;;;5.20;99.90;;;;;;4843706;29;20116;-85
2022/01/24 04:04:26;;;;;;;10.05;6.00;;;5.20;99.90;;;;;;4829461;29;20184;-86
2022/01/24 04:06:52;;;;;;;9.95;5.75;;;5.30;99.90;;;;;;4845596;29;20078;-85
2022/01/24 04:09:18;;;;;;;9.77;5.93;;;5.30;99.90;;;;;;4843151;29;20055;-85
2022/01/24 04:11:44;;;;;;;10.77;5.57;;;5.30;99.90;;;;;;4829457;29;20041;-86
2022/01/24 04:22:14;;;;;;;10.90;6.00;;;5.20;99.90;;;;;;4846809;29;20053;-85
2022/01/24 04:24:41;;;;;;;10.73;6.15;;;5.20;99.90;;;;;;4859131;29;20561;-85
2022/01/24 04:27:07;;;;;;;11.65;6.10;;;5.20;99.90;;;;;;4832647;29;20530;-85
2022/01/24 04:29:33;;;;;;;11.23;6.32;;;5.20;99.90;;;;;;4837530;29;20045;-86
2022/01/24 04:31:59;;;;;;;11.32;6.00;;;5.20;99.90;;;;;;4833197;29;20553;-87
2022/01/24 04:34:25;;;;;;;13.05;6.40;;;5.20;99.90;;;;;;4843753;29;20041;-86
2022/01/24 04:36:51;;;;;;;11.35;5.90;;;5.20;99.90;;;;;;4850499;29;20121;-85
2022/01/24 04:39:16;;;;;;;10.55;5.97;;;5.20;99.90;;;;;;4831120;29;20049;-86
2022/01/24 04:41:46;;;;;;;10.73;5.50;;;5.20;99.90;;;;;;4832483;29;20121;-85
2022/01/24 04:54:44;;;;;;;11.20;5.93;;;5.20;99.90;;;;;;4839826;29;20057;-85
2022/01/24 04:57:14;;;;;;;11.60;6.65;;;5.20;99.90;;;;;;4831977;29;20049;-86
2022/01/24 04:59:41;;;;;;;11.02;6.30;;;5.20;99.90;;;;;;4841763;29;20042;-85
2022/01/24 05:02:07;;;;;;;10.77;6.15;;;5.20;99.90;;;;;;4844588;29;20277;-86
2022/01/24 05:04:34;;;;;;;10.38;6.22;;;5.20;99.90;;;;;;4850639;29;20033;-86
2022/01/24 05:07:00;;;;;;;11.90;6.70;;;5.20;99.90;;;;;;4831627;29;20509;-86
2022/01/24 05:09:28;;;;;;;12.75;7.30;;;5.20;99.90;;;;;;4845475;29;20037;-86
2022/01/24 05:12:00;;;;;;;14.27;7.70;;;5.20;99.90;;;;;;4843316;29;20038;-86
2022/01/24 05:25:22;;;;;;;13.80;7.57;;;5.20;99.90;;;;;;4867207;29;20049;-85
2022/01/24 05:27:47;;;;;;;14.50;8.00;;;5.20;99.90;;;;;;4866327;29;20041;-86
2022/01/24 05:30:15;;;;;;;13.75;6.70;;;5.20;99.90;;;;;;4866047;29;20480;-85
2022/01/24 05:32:40;;;;;;;13.02;6.63;;;5.20;99.90;;;;;;4866061;29;20044;-86
2022/01/24 05:35:06;;;;;;;15.35;8.55;;;5.20;99.90;;;;;;4846581;29;20132;-85
2022/01/24 05:37:32;;;;;;;14.55;6.97;;;5.20;99.90;;;;;;4847448;29;20036;-85
2022/01/24 05:39:58;;;;;;;13.07;7.68;;;5.20;99.90;;;;;;4861235;29;20088;-86
2022/01/24 05:42:23;;;;;;;15.88;8.45;;;5.20;99.90;;;;;;4869894;29;20061;-86
2022/01/24 05:44:49;;;;;;;15.82;8.55;;;5.20;99.90;;;;;;4870326;29;20033;-85
2022/01/24 05:47:16;;;;;;;14.82;7.97;;;5.20;99.90;;;;;;4853323;29;20052;-85
2022/01/24 05:49:41;;;;;;;17.42;9.77;;;5.10;99.90;;;;;;4867023;29;20060;-86
2022/01/24 05:52:09;;;;;;;17.52;8.50;;;5.10;99.90;;;;;;4878434;29;20419;-85
2022/01/24 05:54:41;;;;;;;21.65;10.52;;;5.10;99.90;;;;;;4848723;29;20073;-85
2022/01/24 05:57:08;;;;;;;;;;;5.10;99.90;;;;;;4871770;29;20051;-85
2022/01/24 05:59:34;;;;;;;20.67;10.20;;;5.10;99.90;;;;;;4863194;29;20030;-85
2022/01/24 06:02:00;;;;;;;19.30;9.77;;;5.10;99.90;;;;;;4852711;29;20047;-85
2022/01/24 06:04:25;;;;;;;21.20;10.60;;;5.00;99.90;;;;;;4847367;29;20048;-85
2022/01/24 06:06:51;;;;;;;23.20;11.05;;;5.00;99.90;;;;;;4885365;29;20538;-86
2022/01/24 06:09:17;;;;;;;23.92;12.55;;;5.10;99.90;;;;;;4845719;29;20040;-85
2022/01/24 06:11:43;;;;;;;25.98;12.80;;;5.10;99.90;;;;;;4870439;29;20892;-86
2022/01/24 06:14:10;;;;;;;24.35;12.30;;;5.10;99.90;;;;;;4859507;29;20061;-85
2022/01/24 06:16:36;;;;;;;24.30;10.80;;;5.10;99.90;;;;;;4846057;29;20589;-85
2022/01/24 06:19:02;;;;;;;22.50;12.70;;;5.10;99.90;;;;;;4848121;29;20037;-85
2022/01/24 06:21:27;;;;;;;25.98;13.57;;;5.00;99.90;;;;;;4842820;29;20468;-85
2022/01/24 06:23:53;;;;;;;25.88;12.90;;;5.10;99.90;;;;;;4828780;29;20045;-85
2022/01/24 06:26:19;;;;;;;25.33;13.70;;;5.00;99.90;;;;;;4848351;29;20522;-85
2022/01/24 06:28:44;;;;;;;27.65;14.82;;;5.00;99.90;;;;;;4830275;29;20040;-85
2022/01/24 06:31:10;;;;;;;25.90;13.98;;;5.00;99.90;;;;;;4840824;29;20526;-85
2022/01/24 06:33:35;;;;;;;29.13;16.02;;;5.00;99.90;;;;;;4839913;29;20049;-85
2022/01/24 06:36:01;;;;;;;27.05;15.48;;;5.00;99.90;;;;;;4842605;29;20045;-86
2022/01/24 06:38:27;;;;;;;28.50;15.40;;;5.00;99.90;;;;;;4845123;29;20055;-85
2022/01/24 06:40:53;;;;;;;29.98;17.38;;;5.00;99.90;;;;;;4842620;29;20182;-85
2022/01/24 06:43:18;;;;;;;28.50;17.52;;;5.00;99.90;;;;;;4842011;29;20529;-85
2022/01/24 06:45:44;;;;;;;32.20;18.65;;;5.00;99.90;;;;;;4840865;29;20041;-86
2022/01/24 06:48:10;;;;;;;32.25;18.38;;;5.00;99.90;;;;;;4846287;29;20037;-85
2022/01/24 06:50:35;;;;;;;32.75;17.90;;;5.00;99.90;;;;;;4844045;29;20049;-85
2022/01/24 06:53:01;;;;;;;30.55;17.40;;;5.00;99.90;;;;;;4856523;29;20056;-85
2022/01/24 06:55:27;;;;;;;31.35;16.95;;;5.00;99.90;;;;;;4841894;29;20058;-85
2022/01/24 06:57:52;;;;;;;29.88;18.23;;;5.00;99.90;;;;;;4845801;29;20152;-85
2022/01/24 07:00:22;;;;;;;34.35;19.40;;;5.00;99.90;;;;;;4844616;29;20052;-85
2022/01/24 07:02:48;;;;;;;32.78;18.50;;;5.00;99.90;;;;;;4842273;29;20065;-85
2022/01/24 07:05:14;;;;;;;30.90;17.67;;;5.00;99.90;;;;;;4830012;29;20465;-83
2022/01/24 07:07:39;;;;;;;28.35;16.65;;;5.00;99.90;;;;;;4827153;29;20109;-83
2022/01/24 07:10:06;;;;;;;31.02;17.95;;;5.00;99.90;;;;;;4842894;29;20045;-83
2022/01/24 07:12:31;;;;;;;33.35;18.88;;;4.90;99.90;;;;;;4839026;29;20069;-83
2022/01/24 07:15:03;;;;;;;32.65;19.05;;;5.00;99.90;;;;;;4857426;29;20085;-83
2022/01/24 07:17:44;;;;;;;32.47;17.02;;;5.00;99.90;;;;;;4855849;29;20570;-83
2022/01/24 07:20:10;;;;;;;35.65;20.67;;;5.00;99.90;;;;;;4872867;29;20492;-83
2022/01/24 07:22:36;;;;;;;35.38;19.65;;;4.90;99.90;;;;;;4857578;29;20041;-83
2022/01/24 07:25:02;;;;;;;33.72;19.25;;;5.00;99.90;;;;;;4858881;29;20045;-83
2022/01/24 07:27:27;;;;;;;36.22;19.25;;;4.90;99.90;;;;;;4849432;29;20076;-83
2022/01/24 07:29:53;;;;;;;35.10;20.73;;;5.00;99.90;;;;;;4865845;29;20058;-83
2022/01/24 07:32:18;;;;;;;35.90;19.90;;;4.90;99.90;;;;;;4850755;29;20049;-83
2022/01/24 07:34:44;;;;;;;33.92;19.27;;;5.00;99.90;;;;;;4864146;29;22549;-83
2022/01/24 07:37:10;;;;;;;37.10;20.50;;;5.00;99.90;;;;;;4859979;29;20128;-83
2022/01/24 07:39:35;;;;;;;29.70;17.45;;;4.90;99.90;;;;;;4847217;29;20066;-83
2022/01/24 07:42:14;;;;;;;34.63;18.63;;;4.90;99.90;;;;;;4847667;29;20492;-83
2022/01/24 07:44:40;;;;;;;28.98;17.63;;;5.00;99.90;;;;;;4864157;29;20036;-83
2022/01/24 07:47:05;;;;;;;37.65;20.25;;;4.90;99.90;;;;;;4863717;29;20406;-83
2022/01/24 07:49:31;;;;;;;31.38;18.00;;;5.00;99.90;;;;;;4865567;29;20045;-83
2022/01/24 07:51:57;;;;;;;32.30;16.88;;;5.00;99.90;;;;;;4872915;29;20048;-83
2022/01/24 07:54:23;;;;;;;27.92;16.23;;;5.00;99.90;;;;;;4859310;29;20052;-83
2022/01/24 07:56:48;;;;;;;31.30;17.83;;;5.00;99.90;;;;;;4865265;29;20045;-83
2022/01/24 07:59:15;;;;;;;29.75;16.75;;;5.00;99.90;;;;;;4845199;29;20092;-83
2022/01/24 08:01:42;;;;;;;32.13;17.42;;;5.00;99.90;;;;;;4849860;29;20376;-83
2022/01/24 08:04:08;;;;;;;36.33;19.95;;;5.00;99.90;;;;;;4878021;29;20128;-83
2022/01/24 08:06:34;;;;;;;33.85;18.00;;;4.90;99.90;;;;;;4879648;29;20037;-83
2022/01/24 08:08:59;;;;;;;31.70;18.83;;;4.90;99.90;;;;;;4863329;29;20071;-83
2022/01/24 08:11:25;;;;;;;31.33;17.73;;;5.00;99.90;;;;;;4864447;29;20049;-82
2022/01/24 08:14:15;;;;;;;31.60;17.45;;;5.00;99.90;;;;;;4851077;29;20033;-83
2022/01/24 08:17:05;;;;;;;28.75;16.52;;;4.90;99.90;;;;;;4824059;29;20375;-83
2022/01/24 08:19:33;;;;;;;31.65;17.10;;;4.90;99.90;;;;;;4810827;29;20116;-83
2022/01/24 08:21:59;;;;;;;30.77;16.00;;;4.90;99.90;;;;;;4838538;29;20483;-83
2022/01/24 08:24:24;;;;;;;30.05;16.52;;;4.90;99.90;;;;;;4864240;29;20044;-83
2022/01/24 08:26:50;;;;;;;29.70;16.08;;;4.90;99.90;;;;;;4877961;29;20120;-83
2022/01/24 08:29:16;;;;;;;30.15;17.13;;;4.90;99.90;;;;;;4870568;29;20048;-82
2022/01/24 08:31:42;;;;;;;27.70;16.10;;;5.00;99.90;;;;;;4877710;29;20426;-83
2022/01/24 08:34:07;;;;;;;32.60;18.30;;;4.90;99.90;;;;;;4848053;29;20331;-82
2022/01/24 08:36:34;;;;;;;31.23;15.88;;;4.90;99.90;;;;;;4868257;29;20422;-83
2022/01/24 08:39:06;;;;;;;33.55;18.00;;;4.90;99.90;;;;;;4862823;29;20045;-83
2022/01/24 08:41:57;;;;;;;29.02;15.98;;;4.90;99.90;;;;;;4860882;29;20053;-83
2022/01/24 08:45:42;;;;;;;28.67;16.40;;;4.90;99.90;;;;;;4863024;29;20062;-83
2022/01/24 09:32:32;;;;;;;31.00;16.65;;;5.10;99.90;;;;;;4855080;29;20411;-82
2022/01/24 09:34:57;;;;;;;30.40;15.48;;;5.10;99.90;;;;;;4840953;29;20041;-82
2022/01/24 09:37:23;;;;;;;26.00;15.18;;;5.10;99.90;;;;;;4857914;29;20088;-82
2022/01/24 09:39:48;;;;;;;29.27;16.35;;;5.20;99.90;;;;;;4839399;29;20041;-82
2022/01/24 09:42:15;;;;;;;30.42;17.70;;;5.10;99.90;;;;;;4844759;29;20046;-83
2022/01/24 09:44:41;;;;;;;29.35;17.33;;;5.20;99.90;;;;;;4841302;29;20034;-83
2022/01/24 10:10:04;;;;;;;30.05;15.00;;;5.20;99.90;;;;;;4799175;29;20476;-82
2022/01/24 10:36:01;;;;;;;;;;;;;;;;;;;;;
2022/01/24 12:28:26;;;;;;;21.38;13.32;;;5.50;99.90;;;;;;4827489;27;20046;-82
2022/01/24 12:31:04;;;;;;;20.48;13.60;;;5.50;99.90;;;;;;4860393;29;20049;-82
2022/01/24 12:33:39;;;;;;;21.88;14.48;;;5.50;99.90;;;;;;4835364;29;20084;-82
2022/01/24 12:36:10;;;;;;;22.25;13.70;;;5.40;99.90;;;;;;4844760;29;20037;-82
2022/01/24 12:38:48;;;;;;;21.92;14.43;;;5.40;99.90;;;;;;4854907;29;20041;-82
2022/01/24 12:41:37;;;;;;;23.10;14.63;;;5.40;99.90;;;;;;4844094;29;20041;-82
2022/01/24 12:46:32;;;;;;;21.83;13.48;;;5.40;99.90;;;;;;4846281;29;20460;-82
2022/01/24 12:49:01;;;;;;;17.30;11.85;;;5.40;99.90;;;;;;4826433;29;20046;-82
2022/01/24 12:51:28;;;;;;;20.35;13.63;;;5.40;99.90;;;;;;4828650;29;20042;-82
2022/01/24 12:53:55;;;;;;;19.15;11.48;;;5.40;99.90;;;;;;4822443;29;20053;-82
2022/01/24 12:56:26;;;;;;;22.27;14.52;;;5.40;99.90;;;;;;4831233;29;20471;-82
2022/01/24 12:58:53;;;;;;;24.88;14.63;;;5.40;99.90;;;;;;4827602;29;20132;-82
2022/01/24 13:01:25;;;;;;;22.75;15.00;;;5.40;99.90;;;;;;4826366;29;20042;-82
2022/01/24 13:04:12;;;;;;;22.70;13.30;;;5.40;99.90;;;;;;4823447;29;20042;-82
2022/01/24 13:06:44;;;;;;;20.15;12.95;;;5.40;99.90;;;;;;4821519;29;20044;-82
2022/01/24 13:09:18;;;;;;;20.63;14.20;;;5.40;99.90;;;;;;4829065;29;20094;-82
2022/01/24 13:11:49;;;;;;;26.58;15.48;;;5.40;99.90;;;;;;4841097;29;20480;-82
2022/01/24 13:14:23;;;;;;;21.17;14.10;;;5.40;99.90;;;;;;4837595;29;20437;-82
2022/01/24 13:22:39;;;;;;;22.20;14.93;;;5.40;99.90;;;;;;4831254;29;20042;-82
2022/01/24 13:25:12;;;;;;;22.15;15.10;;;5.40;99.90;;;;;;4831130;29;20480;-83
2022/01/24 13:27:41;;;;;;;22.58;15.15;;;5.40;99.90;;;;;;4841268;29;20053;-82
2022/01/24 13:30:14;;;;;;;24.02;16.05;;;5.40;99.90;;;;;;4825460;29;20062;-82
2022/01/24 13:33:01;;;;;;;21.80;14.02;;;5.40;99.90;;;;;;4825440;29;20046;-82
2022/01/24 13:35:42;;;;;;;20.42;13.82;;;5.40;99.90;;;;;;4809840;29;20160;-82
2022/01/24 13:38:14;;;;;;;21.55;14.90;;;5.40;99.90;;;;;;4836019;29;20057;-82
2022/01/24 13:41:07;;;;;;;20.15;13.73;;;5.40;99.90;;;;;;4830602;29;20042;-82
2022/01/24 13:43:32;;;;;;;20.73;13.33;;;5.40;99.90;;;;;;4824430;29;20111;-82
2022/01/24 13:45:59;;;;;;;21.33;14.80;;;5.40;99.90;;;;;;4824106;29;20306;-82
2022/01/24 15:59:05;;;;;;;20.77;12.93;;;4.90;99.90;;;;;;4843805;29;20177;-82
2022/01/24 16:01:33;;;;;;;22.08;13.82;;;4.90;99.90;;;;;;4825811;29;20511;-83
2022/01/24 16:03:59;;;;;;;23.67;13.13;;;4.90;99.90;;;;;;4828065;29;20041;-83
2022/01/24 16:06:25;;;;;;;21.38;13.88;;;4.90;99.90;;;;;;4828875;29;20480;-82
2022/01/24 16:08:52;;;;;;;22.20;14.20;;;4.80;99.90;;;;;;4826796;29;20053;-82
2022/01/24 16:11:20;;;;;;;20.58;13.20;;;4.80;99.90;;;;;;4843127;29;20113;-83
2022/01/24 16:13:46;;;;;;;21.65;13.38;;;4.80;99.90;;;;;;4843267;29;20045;-83
2022/01/24 16:16:12;;;;;;;24.27;15.18;;;4.80;99.90;;;;;;4844284;29;20351;-83
2022/01/24 16:18:40;;;;;;;23.65;14.73;;;4.80;99.90;;;;;;4841509;29;20049;-83
2022/01/24 16:21:27;;;;;;;20.92;12.52;;;4.80;99.90;;;;;;4846224;29;20060;-83
2022/01/24 16:26:41;;;;;;;18.15;11.82;;;4.80;99.90;;;;;;4812450;29;20420;-83
2022/01/24 16:29:07;;;;;;;22.70;14.15;;;4.80;99.90;;;;;;4828225;29;20049;-83
2022/01/24 16:31:32;;;;;;;18.48;11.40;;;4.80;99.90;;;;;;4841711;29;20057;-83
2022/01/24 16:33:58;;;;;;;20.52;13.13;;;4.80;99.90;;;;;;4853537;29;20075;-83
2022/01/24 16:36:24;;;;;;;23.13;14.85;;;4.80;99.90;;;;;;4837560;29;20378;-83
2022/01/24 16:38:49;;;;;;;21.75;13.60;;;4.80;99.90;;;;;;4847828;29;20491;-84
2022/01/24 16:41:21;;;;;;;22.67;14.45;;;4.80;99.90;;;;;;4842037;29;20083;-83
2022/01/24 16:44:03;;;;;;;22.05;14.65;;;4.70;99.90;;;;;;4842537;29;20101;-83
2022/01/24 16:49:13;;;;;;;26.05;15.82;;;4.70;99.90;;;;;;4822689;29;20049;-83
2022/01/24 16:51:39;;;;;;;21.20;12.93;;;4.70;99.90;;;;;;4824068;29;20483;-83
2022/01/24 16:54:11;;;;;;;18.35;11.80;;;4.70;99.90;;;;;;4839046;29;20038;-83
2022/01/24 16:56:38;;;;;;;21.40;13.48;;;4.70;99.90;;;;;;4826443;29;20066;-83
2022/01/24 16:59:03;;;;;;;27.83;17.73;;;4.70;99.90;;;;;;4830022;29;20064;-83
2022/01/24 17:01:29;;;;;;;25.80;16.30;;;4.70;99.90;;;;;;4821633;29;20034;-83
2022/01/24 17:03:55;;;;;;;26.25;15.35;;;4.70;99.90;;;;;;4824890;29;20062;-83
2022/01/24 17:06:21;;;;;;;22.30;14.20;;;4.70;99.90;;;;;;4811771;29;20041;-83
2022/01/24 17:08:47;;;;;;;29.63;17.58;;;4.70;99.90;;;;;;4824252;29;20052;-83
2022/01/24 17:11:13;;;;;;;36.40;20.42;;;4.70;99.90;;;;;;4838520;29;20042;-83
2022/01/24 17:13:42;;;;;;;31.65;18.95;;;4.70;99.90;;;;;;4827475;29;20045;-82
2022/01/24 17:16:08;;;;;;;21.77;13.98;;;4.70;99.90;;;;;;4809039;29;20056;-82
2022/01/24 17:18:34;;;;;;;20.77;12.20;;;4.70;99.90;;;;;;4827417;29;20053;-83
2022/01/24 17:21:00;;;;;;;21.42;13.68;;;4.70;99.90;;;;;;4825540;29;20521;-83
2022/01/24 17:23:26;;;;;;;21.80;13.93;;;4.60;99.90;;;;;;4824866;29;20048;-83
2022/01/24 17:25:52;;;;;;;24.92;15.43;;;4.70;99.90;;;;;;4825148;29;20038;-83
2022/01/24 17:28:18;;;;;;;26.30;16.02;;;4.70;99.90;;;;;;4822679;29;20495;-82
2022/01/24 17:31:09;;;;;;;23.98;15.80;;;4.70;99.90;;;;;;4836460;29;20081;-83
2022/01/24 17:33:34;;;;;;;26.40;15.02;;;4.70;99.90;;;;;;4836049;29;20089;-83
2022/01/24 17:36:10;;;;;;;27.70;17.08;;;4.60;99.90;;;;;;4840248;29;20496;-83
2022/01/24 17:38:36;;;;;;;27.92;16.45;;;4.70;99.90;;;;;;4823902;29;20049;-83
2022/01/24 17:41:02;;;;;;;21.73;13.38;;;4.70;99.90;;;;;;4836900;29;20437;-83
2022/01/24 17:43:28;;;;;;;25.52;15.65;;;4.70;99.90;;;;;;4819094;29;20125;-83
2022/01/24 17:45:57;;;;;;;23.90;15.07;;;4.70;99.90;;;;;;4823995;29;20517;-83
2022/01/24 17:48:24;;;;;;;22.00;13.32;;;4.70;99.90;;;;;;4807094;29;20053;-83
2022/01/24 17:50:51;;;;;;;24.73;14.27;;;4.70;99.90;;;;;;4809609;29;20046;-85
2022/01/24 17:53:19;;;;;;;23.88;14.10;;;4.60;99.90;;;;;;4818176;29;20101;-83
2022/01/24 17:55:45;;;;;;;22.23;13.18;;;4.70;99.90;;;;;;4811226;29;20531;-83
2022/01/24 17:58:12;;;;;;;24.13;15.40;;;4.70;99.90;;;;;;4820439;29;20045;-83
2022/01/24 18:00:38;;;;;;;25.05;13.20;;;4.70;99.90;;;;;;4829543;29;20190;-83
2022/01/24 18:03:04;;;;;;;24.98;15.43;;;4.70;99.90;;;;;;4807225;29;20157;-83
2022/01/24 18:05:30;;;;;;;24.13;14.07;;;4.70;99.90;;;;;;4819065;29;20046;-84
2022/01/24 18:07:55;;;;;;;22.95;14.38;;;4.60;99.90;;;;;;4816976;29;20045;-83
2022/01/24 18:10:22;;;;;;;20.65;12.52;;;4.60;99.90;;;;;;4805700;29;20122;-85
2022/01/24 18:12:49;;;;;;;24.15;13.32;;;4.60;99.90;;;;;;4836105;29;20064;-85
2022/01/24 18:15:17;;;;;;;25.67;14.50;;;4.60;99.90;;;;;;4820561;29;20057;-84
2022/01/24 18:17:43;;;;;;;25.52;14.63;;;4.60;99.90;;;;;;4813798;29;20094;-84
2022/01/24 18:20:09;;;;;;;26.92;16.17;;;4.60;99.90;;;;;;4818291;29;20054;-84
2022/01/24 18:22:35;;;;;;;23.55;14.57;;;4.60;99.90;;;;;;4839650;29;20145;-84
2022/01/24 18:25:02;;;;;;;26.02;15.88;;;4.60;99.90;;;;;;4809356;29;20061;-84
2022/01/24 18:27:29;;;;;;;26.77;16.73;;;4.60;99.90;;;;;;4809787;29;20117;-83
2022/01/24 18:29:56;;;;;;;25.92;15.65;;;4.60;99.90;;;;;;4824832;29;20141;-84
2022/01/24 18:32:23;;;;;;;26.63;15.82;;;4.60;99.90;;;;;;4822430;29;20048;-84
2022/01/24 18:34:49;;;;;;;25.65;16.10;;;4.60;99.90;;;;;;4826795;29;20065;-84
2022/01/24 18:37:14;;;;;;;24.13;15.52;;;4.60;99.90;;;;;;4821269;29;20129;-84
2022/01/24 18:39:40;;;;;;;25.55;14.63;;;4.60;99.90;;;;;;4822578;29;20073;-85
2022/01/24 18:42:10;;;;;;;26.40;16.40;;;4.60;99.90;;;;;;4826516;29;20045;-84
2022/01/24 18:44:40;;;;;;;25.92;15.35;;;4.60;99.90;;;;;;4812886;29;20030;-83
2022/01/24 18:47:06;;;;;;;26.75;15.48;;;4.60;99.90;;;;;;4823085;29;20046;-84
2022/01/24 18:49:34;;;;;;;28.15;17.15;;;4.60;99.90;;;;;;4837371;29;20046;-84
2022/01/24 18:52:00;;;;;;;28.27;16.52;;;4.60;99.90;;;;;;4809895;29;20086;-84
2022/01/24 18:54:25;;;;;;;26.20;14.55;;;4.60;99.90;;;;;;4840368;29;20125;-84
2022/01/24 18:56:51;;;;;;;28.98;17.92;;;4.60;99.90;;;;;;4821992;29;20141;-84
2022/01/24 18:59:17;;;;;;;29.63;17.42;;;4.60;99.90;;;;;;4822102;29;20046;-83
2022/01/24 19:01:43;;;;;;;29.58;17.50;;;4.60;99.90;;;;;;4827157;29;20152;-84
2022/01/24 19:04:10;;;;;;;27.38;15.75;;;4.60;99.90;;;;;;4825453;29;20046;-84
2022/01/24 19:06:36;;;;;;;27.65;16.63;;;4.60;99.90;;;;;;4822830;29;20049;-83
2022/01/24 19:09:02;;;;;;;26.38;15.63;;;4.60;99.90;;;;;;4809774;29;20041;-84
2022/01/24 19:11:30;;;;;;;30.85;18.77;;;4.60;99.90;;;;;;4824720;29;20506;-84
2022/01/24 19:13:55;;;;;;;27.00;17.15;;;4.60;99.90;;;;;;4837160;29;20170;-84
2022/01/24 19:16:21;;;;;;;26.67;16.25;;;4.60;99.90;;;;;;4820314;29;20054;-83
2022/01/24 19:18:57;;;;;;;28.85;16.80;;;4.60;99.90;;;;;;4818054;29;20119;-84
2022/01/24 19:24:06;;;;;;;29.60;17.92;;;4.60;99.90;;;;;;4826146;29;20053;-84
2022/01/24 19:26:33;;;;;;;32.80;19.30;;;4.50;99.90;;;;;;4820897;29;20133;-84
2022/01/24 19:28:59;;;;;;;30.40;17.02;;;4.50;99.90;;;;;;4826128;29;20097;-84
2022/01/24 19:31:25;;;;;;;31.13;18.90;;;4.50;99.90;;;;;;4824464;29;20507;-84
2022/01/24 19:33:51;;;;;;;28.02;16.02;;;4.50;99.90;;;;;;4824754;29;20502;-85
2022/01/24 19:36:17;;;;;;;28.48;17.48;;;4.50;99.90;;;;;;4839866;29;20053;-84
2022/01/24 19:38:43;;;;;;;27.23;17.10;;;4.50;99.90;;;;;;4823889;29;20395;-84
2022/01/24 19:41:10;;;;;;;33.15;18.50;;;4.50;99.90;;;;;;4840271;29;20041;-84
2022/01/24 19:43:36;;;;;;;35.83;20.17;;;4.50;99.90;;;;;;4823261;29;20046;-84
2022/01/24 19:46:03;;;;;;;30.27;16.65;;;4.50;99.90;;;;;;4823319;29;20045;-84
2022/01/24 19:48:28;;;;;;;24.85;15.07;;;4.50;99.90;;;;;;4824205;29;20075;-83
2022/01/24 19:51:00;;;;;;;28.63;16.73;;;4.50;99.90;;;;;;4825283;29;20046;-84
2022/01/24 19:53:27;;;;;;;28.63;16.15;;;4.50;99.90;;;;;;4820411;29;20098;-84
2022/01/24 19:56:04;;;;;;;26.73;16.70;;;4.50;99.90;;;;;;4807234;29;20437;-84
2022/01/24 19:58:35;;;;;;;30.95;16.85;;;4.50;99.90;;;;;;4809583;29;20050;-84
2022/01/24 20:01:04;;;;;;;25.95;15.98;;;4.50;99.90;;;;;;4840876;29;20122;-84
2022/01/24 20:03:36;;;;;;;26.33;14.88;;;4.50;99.90;;;;;;4820760;29;20044;-84
2022/01/24 20:06:02;;;;;;;26.00;15.70;;;4.50;99.90;;;;;;4823521;29;20049;-84
2022/01/24 20:08:28;;;;;;;23.42;15.20;;;4.50;99.90;;;;;;4824274;29;20592;-84
2022/01/24 20:10:54;;;;;;;28.85;17.30;;;4.50;99.90;;;;;;4821453;29;20176;-84
2022/01/24 20:13:20;;;;;;;27.05;15.73;;;4.50;99.90;;;;;;4806798;29;20052;-84
2022/01/24 20:15:46;;;;;;;19.40;12.52;;;4.50;99.90;;;;;;4840288;29;20038;-83
2022/01/24 20:18:12;;;;;;;26.02;15.65;;;4.40;99.90;;;;;;4824966;29;20103;-83
2022/01/24 20:20:38;;;;;;;24.70;13.98;;;4.40;99.90;;;;;;4825420;29;20527;-83
2022/01/24 20:23:04;;;;;;;30.05;16.90;;;4.50;99.90;;;;;;4824569;29;20121;-84
2022/01/24 20:25:30;;;;;;;29.67;16.58;;;4.40;99.90;;;;;;4826219;29;20041;-84
2022/01/24 20:27:56;;;;;;;29.27;16.00;;;4.40;99.90;;;;;;4822868;29;20057;-83
2022/01/24 20:30:21;;;;;;;27.00;16.52;;;4.40;99.90;;;;;;4808573;29;20086;-84
2022/01/24 20:32:50;;;;;;;32.72;17.10;;;4.40;99.90;;;;;;4825744;29;20038;-84
2022/01/24 20:35:16;;;;;;;31.77;17.63;;;4.40;99.90;;;;;;4825958;29;20087;-83
2022/01/24 20:37:41;;;;;;;34.15;19.73;;;4.40;99.90;;;;;;4824461;29;20072;-83